Time;durP1;ratioP1;P1;durP2;ratioP2;P2;SDS_P1;SDS_P2;PMS_P1;PMS_P2;Temp;Humidity;BMP_temperature;BMP_pressure;BME280_temperature;BME280_humidity;BME280_pressure;Samples;Min_cycle;Max_cycle;Signal;HPM_P1;HPM_P2
2023/07/31 00:01:42;;;;;;;;;4.50;3.75;;;;;24.02;45.22;101077.06;4997952;28;45455;-46
2023/07/31 00:04:07;;;;;;;;;3.00;3.00;;;;;24.02;45.69;101087.66;4997275;28;52767;-43
2023/07/31 00:06:32;;;;;;;;;4.00;3.00;;;;;24.01;45.70;101075.38;4997574;28;45256;-43
2023/07/31 00:08:58;;;;;;;;;2.00;2.00;;;;;24.01;45.22;101072.72;4997253;28;50286;-43
2023/07/31 00:11:23;;;;;;;;;2.00;2.00;;;;;24.01;45.64;101072.72;4997113;28;56510;-42
2023/07/31 00:13:48;;;;;;;;;1.00;1.00;;;;;24.00;45.74;101065.72;4997590;28;45249;-42
2023/07/31 00:16:14;;;;;;;;;3.00;2.00;;;;;24.01;45.52;101079.84;4997509;28;48015;-43
2023/07/31 00:18:39;;;;;;;;;4.00;2.75;;;;;24.00;45.66;101073.69;4997261;28;45663;-44
2023/07/31 00:21:04;;;;;;;;;1.00;1.00;;;;;24.01;45.23;101080.66;4996945;28;55999;-43
2023/07/31 00:23:30;;;;;;;;;2.75;2.00;;;;;24.00;45.26;101067.53;4997407;28;45274;-41
2023/07/31 00:25:55;;;;;;;;;3.00;2.00;;;;;24.00;45.39;101064.91;4979744;28;45652;-44
2023/07/31 00:28:20;;;;;;;;;2.00;2.00;;;;;23.98;45.84;101059.69;4996908;28;51525;-46
2023/07/31 00:30:46;;;;;;;;;4.00;3.00;;;;;23.99;45.30;101044.66;4996951;28;63245;-48
2023/07/31 00:33:11;;;;;;;;;1.75;1.50;;;;;23.98;45.81;101046.44;4997340;28;45351;-43
2023/07/31 00:35:36;;;;;;;;;5.50;2.00;;;;;23.98;45.35;101033.22;4997383;28;45588;-42
2023/07/31 00:38:02;;;;;;;;;5.75;2.00;;;;;23.98;45.76;101038.50;4996380;28;64205;-45
2023/07/31 00:40:27;;;;;;;;;4.00;3.00;;;;;23.99;45.81;101042.03;4997043;28;45254;-40
2023/07/31 00:42:53;;;;;;;;;2.75;2.00;;;;;23.97;45.42;101042.13;4997060;28;45342;-41
2023/07/31 00:45:18;;;;;;;;;1.25;1.25;;;;;24.00;45.78;101041.06;4997453;28;45250;-41
2023/07/31 00:47:43;;;;;;;;;3.75;3.00;;;;;23.99;45.74;101039.38;4996545;28;56868;-47
2023/07/31 00:50:09;;;;;;;;;3.00;1.75;;;;;23.98;45.47;101043.81;4996879;28;45395;-47
2023/07/31 00:52:36;;;;;;;;;4.25;2.00;;;;;23.98;45.55;101046.44;4996961;28;45487;-42
2023/07/31 00:55:01;;;;;;;;;4.00;1.50;;;;;23.98;45.74;101043.81;4997110;28;45557;-43
2023/07/31 00:57:27;;;;;;;;;3.75;3.00;;;;;23.99;45.81;101044.66;4996687;28;46641;-42
2023/07/31 00:59:52;;;;;;;;;1.00;1.00;;;;;23.98;45.40;101037.66;4996770;28;45401;-45
2023/07/31 01:02:17;;;;;;;;;3.75;3.75;;;;;23.99;45.61;101036.72;4979276;28;50424;-45
2023/07/31 01:04:43;;;;;;;;;2.00;2.00;;;;;23.97;45.56;101036.84;4996977;28;45408;-44
2023/07/31 01:07:21;;;;;;;;;4.25;1.25;;;;;23.96;45.27;101029.84;4978972;28;47503;-47
2023/07/31 01:10:02;;;;;;;;;2.25;1.00;;;;;23.98;45.96;101029.72;4996983;28;45258;-46
2023/07/31 01:12:29;;;;;;;;;2.75;2.00;;;;;23.96;45.37;101029.84;4996919;28;45456;-42
2023/07/31 01:15:00;;;;;;;;;2.50;2.50;;;;;23.98;45.46;101017.31;4979080;28;45365;-41
2023/07/31 01:17:26;;;;;;;;;3.00;3.00;;;;;23.97;45.34;101018.31;4996408;28;45445;-45
2023/07/31 01:19:52;;;;;;;;;3.75;2.00;;;;;23.97;45.92;101007.72;4995502;28;55540;-44
2023/07/31 01:22:31;;;;;;;;;4.75;1.25;;;;;23.96;45.37;101005.16;4996995;28;45330;-43
2023/07/31 01:25:07;;;;;;;;;2.75;2.75;;;;;23.97;45.47;100993.63;4996945;28;45405;-43
2023/07/31 01:27:38;;;;;;;;;3.50;3.00;;;;;23.94;45.32;100997.28;4996481;28;46584;-43
2023/07/31 01:30:14;;;;;;;;;2.50;2.00;;;;;23.95;45.37;100985.78;4996483;28;45869;-48
2023/07/31 01:32:42;;;;;;;;;4.25;2.00;;;;;23.97;45.77;100994.47;4996524;28;45366;-46
2023/07/31 01:35:08;;;;;;;;;3.00;1.50;;;;;23.96;45.25;100994.56;4996547;28;45508;-41
2023/07/31 01:37:34;;;;;;;;;2.00;2.00;;;;;23.96;45.49;100999.84;4996230;28;46490;-49
2023/07/31 01:39:59;;;;;;;;;1.00;1.00;;;;;23.94;45.44;100999.94;4996307;28;45219;-44
2023/07/31 01:42:24;;;;;;;;;2.00;2.00;;;;;23.95;45.87;101001.66;4996374;28;45431;-44
2023/07/31 01:44:50;;;;;;;;;3.75;2.00;;;;;23.95;46.03;101001.66;4996671;28;45497;-43
2023/07/31 01:47:15;;;;;;;;;4.25;2.75;;;;;23.94;45.74;100999.94;4996024;28;46253;-45
2023/07/31 01:49:40;;;;;;;;;2.75;1.75;;;;;23.95;45.89;101001.66;4996136;28;45449;-45
2023/07/31 01:52:06;;;;;;;;;2.00;2.00;;;;;23.95;45.77;100996.38;4996251;28;45314;-44
2023/07/31 01:54:32;;;;;;;;;2.00;2.00;;;;;23.95;45.70;100993.72;4996413;28;45532;-46
2023/07/31 01:56:57;;;;;;;;;1.00;1.00;;;;;23.93;45.81;100991.13;4996005;28;47117;-46
2023/07/31 01:59:23;;;;;;;;;4.00;2.25;;;;;23.95;45.94;100993.72;4995858;28;57956;-45
2023/07/31 02:01:48;;;;;;;;;3.00;2.50;;;;;23.94;45.96;100994.66;4996183;28;45428;-47
2023/07/31 02:04:13;;;;;;;;;3.00;2.50;;;;;23.93;45.24;100993.78;4996265;28;45231;-42
2023/07/31 02:06:39;;;;;;;;;3.00;1.00;;;;;23.94;45.67;100997.28;4995168;28;66635;-44
2023/07/31 02:09:04;;;;;;;;;1.25;1.00;;;;;23.94;45.44;100995.47;4995862;28;45420;-45
2023/07/31 02:11:30;;;;;;;;;1.00;1.00;;;;;23.92;45.75;101000.03;4996237;28;45284;-43
2023/07/31 02:13:55;;;;;;;;;6.00;2.00;;;;;23.93;45.04;100991.13;4996066;28;45332;-42
2023/07/31 02:16:20;;;;;;;;;1.00;1.00;;;;;23.93;45.12;100990.31;4995997;28;45961;-46
2023/07/31 02:18:46;;;;;;;;;4.00;2.00;;;;;23.92;45.13;100983.31;4974481;28;53106;-47
2023/07/31 02:21:11;;;;;;;;;3.00;3.00;;;;;23.93;45.49;100985.00;4976303;28;45356;-46
2023/07/31 02:23:36;;;;;;;;;1.50;1.50;;;;;23.90;45.58;100969.31;4974647;28;53393;-46
2023/07/31 02:26:02;;;;;;;;;2.50;2.00;;;;;23.90;45.58;100961.38;4976117;28;46092;-44
2023/07/31 02:28:27;;;;;;;;;3.75;2.00;;;;;23.91;45.15;100973.66;4976068;28;45332;-50
2023/07/31 02:30:52;;;;;;;;;1.75;1.25;;;;;23.90;44.81;100964.91;4978666;28;46408;-48
2023/07/31 02:33:17;;;;;;;;;4.00;1.50;;;;;23.91;44.91;100961.31;4979183;28;48027;-41
2023/07/31 02:35:43;;;;;;;;;2.00;2.00;;;;;23.91;45.49;100965.72;4979191;28;45893;-46
2023/07/31 02:38:08;;;;;;;;;2.50;1.00;;;;;23.91;44.93;100955.13;4979361;28;45372;-45
2023/07/31 02:40:34;;;;;;;;;1.50;1.50;;;;;23.90;45.16;100950.78;4978144;28;45331;-46
2023/07/31 02:42:59;;;;;;;;;4.25;2.00;;;;;23.89;45.29;100943.81;4978228;28;45524;-44
2023/07/31 02:45:24;;;;;;;;;1.75;1.75;;;;;23.90;45.47;100942.84;4979483;28;47391;-48
2023/07/31 02:47:50;;;;;;;;;2.00;1.75;;;;;23.90;44.87;100941.06;4979033;28;45400;-45
2023/07/31 02:50:15;;;;;;;;;2.00;2.00;;;;;23.89;44.89;100949.97;4978827;28;53814;-44
2023/07/31 02:52:40;;;;;;;;;3.00;1.50;;;;;23.90;45.32;100945.50;4979317;28;45523;-43
2023/07/31 02:55:06;;;;;;;;;1.75;1.50;;;;;23.89;44.89;100938.50;4978948;28;46313;-42
2023/07/31 02:57:31;;;;;;;;;2.25;2.25;;;;;23.90;45.32;100929.63;4979178;28;45395;-44
2023/07/31 02:59:57;;;;;;;;;1.00;1.00;;;;;23.89;44.83;100926.13;4979165;28;45323;-44
2023/07/31 03:02:22;;;;;;;;;3.75;1.75;;;;;23.89;44.67;100922.63;4979417;28;45495;-43
2023/07/31 03:04:47;;;;;;;;;1.75;1.75;;;;;23.86;44.97;100923.69;4977569;28;47140;-44
2023/07/31 03:07:12;;;;;;;;;2.00;2.00;;;;;23.86;44.86;100922.84;4978867;28;45254;-41
2023/07/31 03:09:38;;;;;;;;;3.00;2.00;;;;;23.85;44.65;100926.44;4978200;28;61049;-44
2023/07/31 03:12:03;;;;;;;;;1.00;1.00;;;;;23.87;44.59;100929.81;4979115;28;45284;-43
2023/07/31 03:14:29;;;;;;;;;1.00;1.00;;;;;23.82;44.98;100927.50;4978591;28;46239;-40
2023/07/31 03:16:54;;;;;;;;;2.25;1.00;;;;;23.86;44.56;100936.09;4979009;28;45320;-42
2023/07/31 03:19:19;;;;;;;;;3.00;1.00;;;;;23.85;44.58;100942.34;4995671;28;52705;-44
2023/07/31 03:21:45;;;;;;;;;1.00;1.00;;;;;23.85;44.95;100942.34;4998588;28;45647;-45
2023/07/31 03:24:12;;;;;;;;;2.75;1.00;;;;;23.85;44.71;100934.41;4980518;28;47143;-42
2023/07/31 03:26:37;;;;;;;;;1.00;1.00;;;;;23.85;44.96;100929.09;4980480;28;45798;-45
2023/07/31 03:29:02;;;;;;;;;1.50;1.50;;;;;23.85;44.50;100929.09;4998366;28;45342;-42
2023/07/31 03:31:28;;;;;;;;;2.00;2.00;;;;;23.85;44.64;100931.75;4998761;28;45223;-42
2023/07/31 03:33:53;;;;;;;;;2.50;1.25;;;;;23.84;44.41;100919.47;4998021;28;45290;-48
2023/07/31 03:36:18;;;;;;;;;1.00;1.00;;;;;23.84;44.74;100930.06;4980474;28;45488;-44
2023/07/31 03:38:44;;;;;;;;;2.00;0.75;;;;;23.82;44.36;100916.91;4998457;28;45792;-42
2023/07/31 03:41:10;;;;;;;;;0.25;0.25;;;;;23.83;44.87;100917.75;4997599;28;45293;-44
2023/07/31 03:43:35;;;;;;;;;3.00;1.00;;;;;23.82;44.75;100918.72;4980257;28;45488;-43
2023/07/31 03:46:02;;;;;;;;;0.75;0.75;;;;;23.81;44.94;100919.66;4997944;28;45472;-42
2023/07/31 03:48:27;;;;;;;;;1.75;1.75;;;;;23.81;44.82;100924.97;4998475;28;45364;-43
2023/07/31 03:50:53;;;;;;;;;0.00;0.00;;;;;23.82;44.88;100913.41;4998213;28;45636;-45
2023/07/31 03:53:18;;;;;;;;;3.00;1.00;;;;;23.81;44.16;100920.53;4997677;28;46752;-44
2023/07/31 03:55:43;;;;;;;;;0.75;0.75;;;;;23.81;44.34;100914.38;4997595;28;46988;-42
2023/07/31 03:58:09;;;;;;;;;1.00;1.00;;;;;23.82;44.75;100900.19;4979892;28;48878;-44
2023/07/31 04:00:34;;;;;;;;;3.50;1.00;;;;;23.81;44.37;100903.78;4997567;28;48585;-43
2023/07/31 04:02:59;;;;;;;;;4.25;2.00;;;;;23.80;44.25;100904.72;4997922;28;46146;-46
2023/07/31 04:05:25;;;;;;;;;1.75;1.75;;;;;23.81;44.27;100914.38;4997586;28;45285;-46
2023/07/31 04:07:50;;;;;;;;;3.00;2.00;;;;;23.80;44.28;100908.25;4997669;28;45377;-44
2023/07/31 04:10:15;;;;;;;;;1.50;1.00;;;;;23.78;44.77;100900.38;4998222;28;45570;-46
2023/07/31 04:12:41;;;;;;;;;1.00;0.50;;;;;23.81;44.62;100911.72;4980095;28;46985;-46
2023/07/31 04:15:07;;;;;;;;;1.00;1.00;;;;;23.80;44.07;100907.38;4996835;28;57590;-43
2023/07/31 04:17:32;;;;;;;;;1.50;1.50;;;;;23.80;44.60;100915.31;4997336;28;45251;-44
2023/07/31 04:19:57;;;;;;;;;2.50;2.00;;;;;23.79;44.31;100906.53;4997855;28;45282;-43
2023/07/31 04:22:22;;;;;;;;;1.50;1.50;;;;;23.78;44.11;100902.22;4997269;28;45357;-45
2023/07/31 04:24:48;;;;;;;;;1.00;1.00;;;;;23.77;44.49;100914.56;4997292;28;45502;-42
2023/07/31 04:27:13;;;;;;;;;3.75;1.00;;;;;23.78;44.24;100904.84;4996867;28;57559;-44
2023/07/31 04:29:39;;;;;;;;;0.75;0.75;;;;;23.78;44.29;100910.16;4979793;28;45297;-45
2023/07/31 04:32:05;;;;;;;;;1.50;1.00;;;;;23.77;43.90;100911.94;4997000;28;46217;-45
2023/07/31 04:34:30;;;;;;;;;3.00;1.25;;;;;23.77;43.99;100903.16;4997386;28;45439;-41
2023/07/31 04:36:56;;;;;;;;;3.00;1.25;;;;;23.74;44.37;100898.91;4996944;28;52021;-42
2023/07/31 04:39:21;;;;;;;;;1.00;1.00;;;;;23.75;44.13;100902.41;4997455;28;45599;-43
2023/07/31 04:41:46;;;;;;;;;1.00;1.00;;;;;23.73;44.13;100891.94;4997079;28;46547;-41
2023/07/31 04:44:12;;;;;;;;;1.00;1.00;;;;;23.74;43.95;100909.50;4996889;28;45357;-45
2023/07/31 04:46:37;;;;;;;;;2.75;1.75;;;;;23.73;44.14;100902.53;4997045;28;45309;-44
2023/07/31 04:49:03;;;;;;;;;2.00;2.00;;;;;23.75;44.16;100899.75;4979873;28;45263;-46
2023/07/31 04:51:28;;;;;;;;;1.00;1.00;;;;;23.73;43.79;100904.31;4997513;28;46227;-41
2023/07/31 04:53:53;;;;;;;;;0.50;0.00;;;;;23.74;43.63;100920.09;4995699;28;45407;-44
2023/07/31 04:56:19;;;;;;;;;3.50;1.75;;;;;23.72;44.08;100911.41;4996223;28;59472;-45
2023/07/31 04:58:44;;;;;;;;;1.75;1.00;;;;;23.73;44.15;100913.09;4997090;28;45416;-42
2023/07/31 05:01:09;;;;;;;;;3.00;1.75;;;;;23.73;43.73;100912.25;4996580;28;46301;-44
2023/07/31 05:03:35;;;;;;;;;2.00;2.00;;;;;23.72;43.67;100906.13;4996809;28;45320;-45
2023/07/31 05:06:00;;;;;;;;;0.75;0.75;;;;;23.73;44.05;100907.81;4996837;28;49214;-48
2023/07/31 05:08:25;;;;;;;;;1.75;1.75;;;;;23.72;43.66;100906.13;4996620;28;47682;-43
2023/07/31 05:10:51;;;;;;;;;3.00;1.00;;;;;23.71;43.92;100909.72;4996399;28;46641;-47
2023/07/31 05:13:16;;;;;;;;;3.25;1.25;;;;;23.72;44.09;100905.25;4996621;28;45748;-46
2023/07/31 05:15:42;;;;;;;;;2.75;2.00;;;;;23.72;44.12;100905.25;4995909;28;58959;-43
2023/07/31 05:18:07;;;;;;;;;3.50;2.00;;;;;23.71;44.07;100899.13;4996395;28;46444;-47
2023/07/31 05:20:32;;;;;;;;;3.00;2.00;;;;;23.72;43.68;100897.31;4996173;28;65135;-44
2023/07/31 05:22:58;;;;;;;;;4.50;2.25;;;;;23.71;43.82;100907.06;4996521;28;45282;-47
2023/07/31 05:25:23;;;;;;;;;2.25;1.00;;;;;23.70;44.32;100910.66;4996719;28;45334;-45
2023/07/31 05:27:49;;;;;;;;;4.00;2.00;;;;;23.70;44.25;100901.88;4996796;28;45298;-42
2023/07/31 05:30:14;;;;;;;;;2.00;2.00;;;;;23.69;43.91;100901.03;4996334;28;45163;-45
2023/07/31 05:32:39;;;;;;;;;3.00;3.00;;;;;23.69;43.94;100908.97;4996386;28;45286;-42
2023/07/31 05:35:05;;;;;;;;;4.00;1.25;;;;;23.70;44.19;100908.00;4996784;28;45396;-45
2023/07/31 05:37:31;;;;;;;;;3.00;2.00;;;;;23.70;43.81;100897.44;4996726;28;45313;-40
2023/07/31 05:39:56;;;;;;;;;4.00;3.00;;;;;23.69;44.08;100884.31;4978612;28;46255;-43
2023/07/31 05:42:21;;;;;;;;;2.25;2.25;;;;;23.69;44.30;100890.44;4995776;28;60501;-40
2023/07/31 05:44:47;;;;;;;;;3.00;3.00;;;;;23.70;44.06;100888.66;4978634;28;45302;-46
2023/07/31 05:47:12;;;;;;;;;2.25;2.25;;;;;23.70;44.38;100883.38;4996441;28;45416;-47
2023/07/31 05:49:38;;;;;;;;;3.50;3.00;;;;;23.69;44.55;100877.22;4978459;28;47430;-44
2023/07/31 05:52:03;;;;;;;;;5.50;2.00;;;;;23.69;44.73;100871.91;4996454;28;45379;-47
2023/07/31 05:54:29;;;;;;;;;2.75;2.75;;;;;23.69;44.48;100863.16;4996134;28;45322;-42
2023/07/31 05:56:54;;;;;;;;;5.50;2.25;;;;;23.69;44.55;100879.03;4996388;28;45314;-45
2023/07/31 05:59:19;;;;;;;;;5.50;3.50;;;;;23.67;44.51;100863.22;4995667;28;53801;-45
2023/07/31 06:01:44;;;;;;;;;6.00;4.00;;;;;23.67;44.30;100857.94;4995584;28;54793;-47
2023/07/31 06:04:10;;;;;;;;;3.25;2.50;;;;;23.68;44.65;100862.28;4996197;28;45326;-44
2023/07/31 06:06:35;;;;;;;;;1.25;0.75;;;;;23.67;44.82;100863.22;5000146;28;45373;-46
2023/07/31 06:09:00;;;;;;;;;1.00;1.00;;;;;23.68;44.69;100861.44;4999246;28;47309;-43
2023/07/31 06:11:26;;;;;;;;;3.25;3.00;;;;;23.68;44.99;100850.88;4999449;28;45203;-42
2023/07/31 06:13:51;;;;;;;;;5.00;3.50;;;;;23.68;44.73;100854.34;4999330;28;45219;-41
2023/07/31 06:16:16;;;;;;;;;4.00;4.00;;;;;23.67;44.69;100859.75;4981749;28;45582;-46
2023/07/31 06:18:42;;;;;;;;;3.75;3.75;;;;;23.67;44.95;100854.47;4978331;28;46275;-46
2023/07/31 06:21:09;;;;;;;;;5.75;2.50;;;;;23.65;44.88;100846.59;4979861;28;45435;-43
2023/07/31 06:23:34;;;;;;;;;4.00;2.00;;;;;23.68;44.80;100846.41;4979999;28;45400;-44
2023/07/31 06:26:00;;;;;;;;;6.00;3.50;;;;;23.66;45.12;100837.72;4979844;28;45579;-42
2023/07/31 06:28:29;;;;;;;;;4.25;3.00;;;;;23.66;44.89;100837.72;4978982;28;57689;-45
2023/07/31 06:30:55;;;;;;;;;4.75;4.00;;;;;23.65;45.02;100843.97;4979346;28;45321;-44
2023/07/31 06:33:20;;;;;;;;;4.25;3.00;;;;;23.65;45.38;100849.25;4979447;28;45343;-46
2023/07/31 06:35:46;;;;;;;;;4.25;3.00;;;;;23.66;44.99;100858.88;4979547;28;45491;-45
2023/07/31 06:38:11;;;;;;;;;5.50;3.25;;;;;23.66;45.06;100864.19;4979231;28;46364;-46
2023/07/31 06:40:36;;;;;;;;;3.25;3.25;;;;;23.64;45.20;100855.53;4979448;28;48443;-44
2023/07/31 06:43:07;;;;;;;;;6.25;4.75;;;;;23.65;45.60;100856.34;4979226;28;45283;-46
2023/07/31 06:45:34;;;;;;;;;7.00;4.00;;;;;23.64;45.23;100863.47;4979473;28;45691;-46
2023/07/31 06:48:01;;;;;;;;;8.00;4.00;;;;;23.65;45.65;100862.47;4979079;28;46408;-47
2023/07/31 06:50:26;;;;;;;;;5.50;5.00;;;;;23.65;45.55;100859.84;4977825;28;45347;-48
2023/07/31 06:52:52;;;;;;;;;3.00;3.00;;;;;23.67;45.53;100865.88;4979228;28;45277;-45
2023/07/31 06:55:21;;;;;;;;;6.25;3.25;;;;;23.67;45.93;100854.47;4978582;28;53438;-43
2023/07/31 06:57:48;;;;;;;;;4.00;4.00;;;;;23.67;45.77;100857.09;4978881;28;45545;-46
2023/07/31 07:00:14;;;;;;;;;4.00;4.00;;;;;23.64;45.56;100866.09;4977699;28;45911;-46
2023/07/31 07:02:40;;;;;;;;;5.00;4.75;;;;;23.65;45.98;100865.13;4979400;28;45318;-43
2023/07/31 07:05:06;;;;;;;;;3.50;3.50;;;;;23.67;45.33;100859.75;4979119;28;45630;-47
2023/07/31 07:07:32;;;;;;;;;3.50;3.50;;;;;23.65;45.98;100862.47;4978776;28;46104;-44
2023/07/31 07:09:59;;;;;;;;;5.00;4.00;;;;;23.66;45.74;100858.88;4978817;28;45291;-43
2023/07/31 07:12:25;;;;;;;;;5.00;3.00;;;;;23.65;45.54;100849.25;4978743;28;45222;-45
2023/07/31 07:14:50;;;;;;;;;4.25;1.25;;;;;23.65;46.14;100849.25;4978941;28;45344;-47
2023/07/31 07:17:15;;;;;;;;;4.25;3.00;;;;;23.65;45.68;100849.25;4978155;28;45935;-46
2023/07/31 07:19:41;;;;;;;;;6.00;2.00;;;;;23.65;46.08;100846.59;4998751;28;45384;-47
2023/07/31 07:22:07;;;;;;;;;8.00;4.75;;;;;23.66;45.77;100837.72;4998754;28;45372;-44
2023/07/31 07:24:32;;;;;;;;;4.75;3.75;;;;;23.65;45.78;100845.78;4998453;28;45592;-46
2023/07/31 07:26:58;;;;;;;;;4.00;4.00;;;;;23.64;46.27;100834.34;4998099;28;46027;-42
2023/07/31 07:29:26;;;;;;;;;5.75;4.50;;;;;23.65;45.91;100841.31;4997498;28;63269;-45
2023/07/31 07:31:51;;;;;;;;;5.75;3.50;;;;;23.65;45.99;100841.31;4998299;28;45247;-45
2023/07/31 07:34:16;;;;;;;;;4.75;3.50;;;;;23.66;46.17;100835.06;4980047;28;56994;-48
2023/07/31 07:36:42;;;;;;;;;4.25;4.00;;;;;23.67;46.37;100834.13;4998281;28;46262;-47
2023/07/31 07:39:09;;;;;;;;;6.75;5.25;;;;;23.67;45.93;100828.00;4998116;28;45436;-44
2023/07/31 07:41:35;;;;;;;;;4.50;3.50;;;;;23.64;46.37;100826.41;4998138;28;45409;-45
2023/07/31 07:44:00;;;;;;;;;6.00;3.00;;;;;23.66;46.36;100842.19;4997534;28;54902;-43
2023/07/31 07:46:25;;;;;;;;;10.00;4.00;;;;;23.66;46.32;100836.88;4997150;28;67527;-46
2023/07/31 07:48:51;;;;;;;;;4.50;4.00;;;;;23.65;45.94;100827.25;4997828;28;45432;-42
2023/07/31 07:51:16;;;;;;;;;5.50;3.50;;;;;23.67;46.45;100841.22;4998067;28;45370;-45
2023/07/31 07:53:41;;;;;;;;;3.50;3.00;;;;;23.66;46.17;100845.66;4998371;28;45556;-46
2023/07/31 07:56:06;;;;;;;;;5.75;4.25;;;;;23.65;46.16;100828.09;4997205;28;55315;-47
2023/07/31 07:58:32;;;;;;;;;5.25;4.00;;;;;23.65;46.38;100833.38;4997777;28;45358;-44
2023/07/31 08:00:57;;;;;;;;;5.00;5.00;;;;;23.65;46.24;100832.53;4997741;28;45428;-45
2023/07/31 08:03:22;;;;;;;;;3.25;2.00;;;;;23.67;46.29;100836.78;4997429;28;49538;-42
2023/07/31 08:05:48;;;;;;;;;4.25;4.25;;;;;23.68;46.57;100824.41;4997523;28;45302;-44
2023/07/31 08:08:17;;;;;;;;;5.50;5.00;;;;;23.66;46.29;100827.13;4997903;28;45461;-46
2023/07/31 08:10:43;;;;;;;;;5.50;3.75;;;;;23.68;46.35;100833.16;4998091;28;45322;-43
2023/07/31 08:13:10;;;;;;;;;9.00;4.25;;;;;23.69;46.13;100826.09;4997957;28;45385;-41
2023/07/31 08:15:35;;;;;;;;;2.50;1.00;;;;;23.68;46.61;100814.66;4997309;28;46545;-48
2023/07/31 08:18:00;;;;;;;;;6.67;4.33;;;;;23.67;46.59;100817.41;4996615;28;61880;-45
2023/07/31 08:20:26;;;;;;;;;4.75;4.50;;;;;23.69;46.67;100819.00;4997401;28;45430;-46
2023/07/31 08:22:52;;;;;;;;;4.75;4.00;;;;;23.69;46.40;100826.09;4997708;28;45518;-47
2023/07/31 08:25:18;;;;;;;;;5.25;4.00;;;;;23.69;46.30;100832.22;4996787;28;46945;-48
2023/07/31 08:27:44;;;;;;;;;4.00;4.00;;;;;23.70;46.29;100831.28;4997276;28;45233;-47
2023/07/31 08:30:10;;;;;;;;;4.75;4.00;;;;;23.70;45.91;100818.03;4997342;28;45357;-43
2023/07/31 08:32:35;;;;;;;;;4.00;3.50;;;;;23.71;46.55;100814.44;4997537;28;45272;-46
